Time;durP1;ratioP1;P1;durP2;ratioP2;P2;SDS_P1;SDS_P2;PMS_P1;PMS_P2;Temp;Humidity;BMP_temperature;BMP_pressure;BME280_temperature;BME280_humidity;BME280_pressure;Samples;Min_cycle;Max_cycle;Signal;HPM_P1;HPM_P2
2021/07/11 00:02:45;;;;;;;7.97;7.17;;;;;;;15.10;100.00;101708.37;1970684;72;32937;-71
2021/07/11 00:08:11;;;;;;;8.83;7.93;;;;;;;15.08;100.00;101702.22;1971060;72;32994;-71
2021/07/11 00:13:36;;;;;;;8.03;7.23;;;;;;;15.08;100.00;101698.87;1970792;73;33019;-73
2021/07/11 00:19:01;;;;;;;8.50;7.57;;;;;;;15.04;100.00;101696.39;1970399;72;33004;-71
2021/07/11 00:24:25;;;;;;;9.13;7.63;;;;;;;14.99;100.00;101704.83;1970677;72;32978;-71
2021/07/11 00:29:49;;;;;;;9.30;8.23;;;;;;;14.87;100.00;101708.58;1970486;72;33018;-73
2021/07/11 00:35:14;;;;;;;9.77;8.27;;;;;;;15.02;100.00;101714.86;1970762;72;33038;-72
2021/07/11 00:40:40;;;;;;;11.13;9.17;;;;;;;14.89;100.00;101705.74;1970607;72;33440;-73
2021/07/11 00:46:06;;;;;;;8.63;7.47;;;;;;;15.02;100.00;101698.63;1970884;73;32970;-72
2021/07/11 00:51:30;;;;;;;9.53;7.33;;;;;;;14.82;100.00;101697.42;1970780;73;32933;-72
2021/07/11 00:56:55;;;;;;;11.17;7.10;;;;;;;14.60;100.00;101695.09;1970717;72;32973;-73
2021/07/11 01:02:23;;;;;;;8.17;7.37;;;;;;;14.32;100.00;101691.09;1970716;72;33033;-73
2021/07/11 01:07:51;;;;;;;9.70;7.00;;;;;;;14.12;100.00;101694.83;1970780;72;33024;-73
2021/07/11 01:13:21;;;;;;;8.17;7.37;;;;;;;14.27;100.00;101702.84;1970750;73;33442;-73
2021/07/11 01:18:48;;;;;;;7.50;6.33;;;;;;;14.10;100.00;101712.45;1970888;72;32931;-72
2021/07/11 01:24:16;;;;;;;8.83;7.73;;;;;;;14.21;100.00;101709.58;1970667;72;33007;-71
2021/07/11 01:29:43;;;;;;;11.50;10.10;;;;;;;14.30;100.00;101702.27;1970508;73;33100;-73
2021/07/11 01:35:10;;;;;;;9.37;8.10;;;;;;;14.37;100.00;101691.64;1970799;73;33001;-71
2021/07/11 01:40:36;;;;;;;11.77;8.80;;;;;;;14.22;100.00;101684.71;1970709;72;32943;-73
2021/07/11 01:46:21;;;;;;;11.97;10.47;;;;;;;14.14;100.00;101681.41;1946355;74;33126;-76
2021/07/11 01:51:47;;;;;;;15.70;12.77;;;;;;;14.03;100.00;101697.94;1970628;72;32942;-71
2021/07/11 01:57:13;;;;;;;18.00;15.87;;;;;;;14.14;100.00;101697.34;1970609;73;32907;-73
2021/07/11 02:02:37;;;;;;;22.60;19.67;;;;;;;14.13;100.00;101700.69;1970647;72;33035;-71
2021/07/11 02:08:04;;;;;;;24.23;21.40;;;;;;;14.25;100.00;101705.92;1970780;73;32950;-71
2021/07/11 02:13:38;;;;;;;30.20;24.00;;;;;;;14.41;100.00;101708.11;1970514;72;32887;-71
2021/07/11 02:19:05;;;;;;;26.80;22.13;;;;;;;14.35;100.00;101690.52;1970551;73;33552;-71
2021/07/11 02:24:32;;;;;;;24.97;20.67;;;;;;;14.36;100.00;101692.20;1970871;72;33559;-73
2021/07/11 02:29:57;;;;;;;24.87;20.00;;;;;;;14.48;100.00;101690.44;1970610;72;33516;-71
2021/07/11 02:35:26;;;;;;;19.83;16.33;;;;;;;14.21;100.00;101681.08;1970572;72;33392;-71
2021/07/11 02:40:54;;;;;;;21.87;17.20;;;;;;;14.04;100.00;101684.81;1970651;72;33047;-73
2021/07/11 02:46:22;;;;;;;16.17;14.47;;;;;;;13.71;100.00;101679.41;1970678;72;32967;-71
2021/07/11 02:51:51;;;;;;;17.73;14.43;;;;;;;13.58;100.00;101681.41;1970679;72;33336;-73
2021/07/11 02:57:20;;;;;;;14.37;12.87;;;;;;;13.57;100.00;101681.97;1970585;72;33080;-73
2021/07/11 03:02:47;;;;;;;16.10;13.03;;;;;;;13.61;100.00;101673.30;1970562;73;32978;-73
2021/07/11 03:08:14;;;;;;;12.90;10.87;;;;;;;13.63;100.00;101668.84;1970656;73;33051;-73
2021/07/11 03:13:40;;;;;;;14.27;11.10;;;;;;;13.58;100.00;101661.31;1970502;72;32961;-71
2021/07/11 03:19:06;;;;;;;13.03;10.17;;;;;;;13.52;100.00;101647.09;1970724;72;33462;-73
2021/07/11 03:24:33;;;;;;;10.43;8.87;;;;;;;13.31;100.00;101656.66;1970794;73;33075;-73
2021/07/11 03:30:04;;;;;;;12.53;10.47;;;;;;;13.27;100.00;101658.35;1970501;72;32878;-73
2021/07/11 03:32:37;;;;;;;11.60;10.20;;;;;;;13.27;100.00;101668.11;1946246;74;26623;-73
2021/07/11 03:38:06;;;;;;;13.17;11.50;;;;;;;13.41;100.00;101655.80;1970584;73;32886;-71
2021/07/11 03:43:39;;;;;;;14.60;11.90;;;;;;;13.64;100.00;101654.60;1970924;73;32898;-73
2021/07/11 03:49:07;;;;;;;15.07;12.23;;;;;;;13.69;100.00;101649.56;1970888;73;32964;-73
2021/07/11 03:51:39;;;;;;;13.20;11.80;;;;;;;13.62;100.00;101655.44;1946152;74;26187;-73
2021/07/11 03:57:08;;;;;;;15.17;12.10;;;;;;;13.67;100.00;101644.25;1970900;72;32904;-73
2021/07/11 04:02:34;;;;;;;14.00;10.73;;;;;;;13.66;100.00;101631.96;1870951;73;39528;-73
2021/07/11 04:08:02;;;;;;;13.40;11.00;;;;;;;13.44;100.00;101647.69;1970437;72;32991;-72
2021/07/11 04:13:28;;;;;;;16.83;11.40;;;;;;;13.25;100.00;101666.73;1970823;73;33435;-72
2021/07/11 04:18:56;;;;;;;21.03;15.30;;;;;;;13.66;100.00;101678.03;1971065;72;33506;-72
2021/07/11 04:24:23;;;;;;;20.63;15.87;;;;;;;13.71;100.00;101682.20;1970661;72;33041;-71
2021/07/11 04:29:54;;;;;;;21.93;16.50;;;;;;;13.81;100.00;101678.53;1970646;72;32900;-73
2021/07/11 04:35:19;;;;;;;18.73;15.13;;;;;;;13.80;100.00;101676.86;1970724;72;32979;-73
2021/07/11 04:40:43;;;;;;;21.60;15.67;;;;;;;13.63;100.00;101680.84;1970742;73;34182;-73
2021/07/11 04:46:07;;;;;;;21.67;15.53;;;;;;;13.54;100.00;101681.16;1970470;72;33067;-73
2021/07/11 04:51:33;;;;;;;21.37;14.37;;;;;;;13.61;100.00;101687.26;1970571;73;32967;-71
2021/07/11 04:56:59;;;;;;;19.67;13.73;;;;;;;13.79;100.00;101688.58;1970877;73;33535;-71
2021/07/11 05:02:23;;;;;;;20.23;14.70;;;;;;;13.79;100.00;101689.98;1970531;73;32967;-73
2021/07/11 05:07:47;;;;;;;19.80;14.83;;;;;;;13.82;100.00;101686.60;1970806;72;33363;-72
2021/07/11 05:13:11;;;;;;;18.97;14.43;;;;;;;13.89;100.00;101680.16;1971094;72;32964;-73
2021/07/11 05:18:36;;;;;;;19.27;13.80;;;;;;;14.04;100.00;101682.02;1970605;72;33398;-71
2021/07/11 05:24:00;;;;;;;15.00;12.10;;;;;;;14.03;100.00;101674.20;1970613;72;33147;-71
2021/07/11 05:29:44;;;;;;;15.60;12.20;;;;;;;14.20;100.00;101668.81;1946490;74;33038;-71
2021/07/11 05:35:10;;;;;;;13.20;11.37;;;;;;;14.06;100.00;101663.03;1970747;72;33467;-71
2021/07/11 05:40:36;;;;;;;14.67;11.90;;;;;;;14.09;100.00;101664.67;1970805;72;33140;-73
2021/07/11 05:46:00;;;;;;;15.67;12.53;;;;;;;14.29;100.00;101657.30;1970696;72;32950;-74
2021/07/11 05:51:25;;;;;;;16.13;12.10;;;;;;;14.36;100.00;101660.63;1970791;73;33448;-73
2021/07/11 05:56:49;;;;;;;15.40;11.50;;;;;;;14.41;100.00;101675.41;1970691;73;33566;-71
2021/07/11 06:02:14;;;;;;;13.97;11.83;;;;;;;14.40;100.00;101669.53;1970863;73;33385;-72
2021/07/11 06:07:41;;;;;;;12.70;11.27;;;;;;;14.58;100.00;101673.59;1970678;73;33580;-72
2021/07/11 06:13:07;;;;;;;16.13;12.70;;;;;;;14.66;100.00;101672.12;1970385;72;32954;-71
2021/07/11 06:18:31;;;;;;;14.73;11.90;;;;;;;14.69;100.00;101673.77;1970632;72;32939;-72
2021/07/11 06:23:56;;;;;;;15.87;13.00;;;;;;;14.75;100.00;101676.80;1970535;72;33117;-71
2021/07/11 06:29:20;;;;;;;15.17;12.53;;;;;;;14.85;100.00;101668.30;1970442;73;33468;-71
2021/07/11 06:34:45;;;;;;;15.67;13.53;;;;;;;15.00;100.00;101679.92;1970528;73;32942;-72
2021/07/11 06:40:11;;;;;;;16.57;12.90;;;;;;;15.13;100.00;101689.03;1970335;73;32961;-72
2021/07/11 06:45:36;;;;;;;18.33;14.47;;;;;;;15.28;100.00;101684.66;1970962;72;32910;-71
2021/07/11 06:51:01;;;;;;;15.03;12.07;;;;;;;15.42;100.00;101677.78;1970548;72;33377;-73
2021/07/11 06:56:25;;;;;;;15.03;11.17;;;;;;;15.41;100.00;101676.11;1970828;73;32993;-73
2021/07/11 07:01:49;;;;;;;15.20;12.67;;;;;;;15.55;100.00;101671.50;1970739;72;33060;-73
2021/07/11 07:07:14;;;;;;;14.97;11.23;;;;;;;15.76;100.00;101672.08;1970661;73;33292;-73
2021/07/11 07:12:39;;;;;;;14.80;12.03;;;;;;;15.94;100.00;101668.48;1970811;72;33547;-74
2021/07/11 07:18:07;;;;;;;15.97;12.27;;;;;;;16.14;100.00;101675.19;1970737;72;33475;-74
2021/07/11 07:23:31;;;;;;;13.87;10.77;;;;;;;16.26;100.00;101678.93;1970906;73;31057;-74
2021/07/11 07:28:56;;;;;;;10.30;8.30;;;;;;;16.35;100.00;101686.36;1970575;72;32926;-73
2021/07/11 07:34:20;;;;;;;9.40;8.13;;;;;;;16.40;100.00;101682.08;1970685;72;33017;-73
2021/07/11 07:39:44;;;;;;;8.07;7.27;;;;;;;16.81;100.00;101689.88;1970695;72;33133;-74
2021/07/11 07:45:10;;;;;;;7.07;6.40;;;;;;;17.05;100.00;101680.74;1970547;73;32973;-74
2021/07/11 07:50:35;;;;;;;6.20;5.60;;;;;;;17.16;100.00;101679.40;1970612;72;32886;-74
2021/07/11 07:56:00;;;;;;;6.50;5.50;;;;;;;17.56;100.00;101669.92;1970898;73;31427;-75
2021/07/11 08:01:24;;;;;;;4.73;4.07;;;;;;;17.83;100.00;101653.66;1970681;73;31562;-73
2021/07/11 08:06:48;;;;;;;3.47;2.93;;;;;;;17.97;100.00;101641.82;1970772;73;31474;-75
2021/07/11 08:12:13;;;;;;;2.90;2.70;;;;;;;18.57;100.00;101628.28;1970735;72;31440;-73
2021/07/11 08:17:37;;;;;;;3.03;2.43;;;;;;;18.92;100.00;101614.69;1970783;72;33561;-73
2021/07/11 08:23:03;;;;;;;2.20;2.00;;;;;;;19.27;100.00;101611.45;1970512;73;30923;-74
2021/07/11 08:28:27;;;;;;;2.60;2.40;;;;;;;19.43;100.00;101608.48;1970575;72;30996;-73
2021/07/11 08:33:52;;;;;;;2.93;2.63;;;;;;;19.64;100.00;101605.88;1970716;72;33389;-75
2021/07/11 08:39:16;;;;;;;4.10;2.60;;;;;;;19.74;100.00;101604.75;1970753;72;33376;-73
2021/07/11 08:44:41;;;;;;;3.60;2.43;;;;;;;19.27;100.00;101605.83;1970504;72;31054;-74
2021/07/11 08:50:09;;;;;;;2.40;2.20;;;;;;;19.20;100.00;101608.87;1970462;72;31137;-74
2021/07/11 08:55:34;;;;;;;2.57;2.30;;;;;;;19.60;100.00;101606.28;1970450;73;31383;-72
2021/07/11 09:00:59;;;;;;;2.47;1.97;;;;;;;19.71;100.00;101593.56;1970762;72;30997;-74
2021/07/11 09:06:24;;;;;;;1.90;1.80;;;;;;;19.49;100.00;101597.89;1970791;72;31559;-74
2021/07/11 09:11:55;;;;;;;3.17;2.17;;;;;;;19.52;100.00;101591.59;1970422;72;30930;-74
2021/07/11 09:17:22;;;;;;;2.40;2.20;;;;;;;19.85;100.00;101591.41;1970577;72;31247;-74
2021/07/11 09:22:56;;;;;;;2.37;2.17;;;;;;;20.24;100.00;101589.59;1936065;73;31408;-72
2021/07/11 09:28:20;;;;;;;2.23;2.13;;;;;;;20.49;100.00;101593.62;1970460;73;30979;-74
2021/07/11 09:33:59;;;;;;;3.17;2.43;;;;;;;20.69;100.00;101597.14;1970810;73;31485;-74
2021/07/11 09:39:25;;;;;;;2.40;2.20;;;;;;;20.19;100.00;101606.14;1971169;72;33330;-73
2021/07/11 09:44:52;;;;;;;2.30;2.10;;;;;;;20.16;100.00;101605.95;1970378;73;31161;-76
2021/07/11 09:50:21;;;;;;;2.40;2.20;;;;;;;20.21;100.00;101610.85;1970601;72;31059;-73
2021/07/11 09:55:46;;;;;;;3.13;2.90;;;;;;;20.52;100.00;101613.53;1970603;72;30940;-74
2021/07/11 10:01:13;;;;;;;3.17;2.90;;;;;;;20.63;100.00;101610.59;1970547;72;31421;-73
2021/07/11 10:06:39;;;;;;;2.97;2.53;;;;;;;20.40;100.00;101601.52;1970600;72;30987;-74
2021/07/11 10:12:05;;;;;;;4.87;3.07;;;;;;;20.23;100.00;101605.73;1970508;73;30985;-73
2021/07/11 10:17:30;;;;;;;2.50;2.30;;;;;;;20.23;100.00;101604.89;1970832;72;30931;-73
2021/07/11 10:22:56;;;;;;;2.67;2.43;;;;;;;20.67;100.00;101591.82;1970748;72;33541;-75
2021/07/11 10:28:25;;;;;;;2.70;2.50;;;;;;;20.36;100.00;101586.41;1970642;73;31036;-71
2021/07/11 10:33:51;;;;;;;2.80;2.23;;;;;;;20.65;100.00;101590.52;1970642;72;31081;-75
2021/07/11 10:39:34;;;;;;;1.90;1.80;;;;;;;20.76;100.00;101590.39;1972217;72;30939;-82
2021/07/11 10:45:09;;;;;;;2.23;2.03;;;;;;;20.79;100.00;101584.09;1970300;72;31076;-75
2021/07/11 10:50:35;;;;;;;2.57;2.20;;;;;;;21.14;100.00;101578.58;1970366;72;31404;-73
2021/07/11 10:56:00;;;;;;;2.60;2.40;;;;;;;21.19;100.00;101569.09;1970312;72;30932;-73
2021/07/11 11:01:35;;;;;;;2.50;2.30;;;;;;;20.92;100.00;101565.28;1970183;72;31988;-76
2021/07/11 11:07:14;;;;;;;2.33;2.13;;;;;;;21.30;100.00;101554.26;1970077;72;31063;-71
2021/07/11 11:12:39;;;;;;;2.30;2.10;;;;;;;21.25;100.00;101551.62;1970330;73;31688;-71
2021/07/11 11:18:27;;;;;;;2.40;2.20;;;;;;;21.16;100.00;101546.59;1970369;72;31445;-78
2021/07/11 11:23:57;;;;;;;3.53;2.43;;;;;;;21.12;100.00;101539.96;1970435;72;30927;-75
2021/07/11 11:29:27;;;;;;;2.60;2.40;;;;;;;21.36;100.00;101536.50;1970244;72;31539;-72
2021/07/11 11:34:51;;;;;;;2.42;2.22;;;;;;;21.29;100.00;101526.33;1970630;72;31103;-73
2021/07/11 11:40:18;;;;;;;2.50;2.10;;;;;;;21.40;100.00;101519.68;1970259;72;31072;-76
2021/07/11 11:45:45;;;;;;;2.52;2.33;;;;;;;21.40;100.00;101531.81;1970415;72;30950;-75
2021/07/11 11:48:13;;;;;;;3.73;2.50;;;;;;;;;;1945861;74;24214;-72
2021/07/11 11:53:45;;;;;;;2.20;2.00;;;;;;;21.50;100.00;101527.77;1970450;72;31003;-76
2021/07/11 11:59:09;;;;;;;2.70;2.50;;;;;;;21.31;100.00;101527.63;1970455;72;31061;-76
2021/07/11 12:04:27;;;;;;;2.10;1.80;;;;;;;21.18;100.00;101520.22;1950043;73;30748;-76
2021/07/11 12:06:59;;;;;;;2.83;1.77;;;;;;;21.18;100.00;101522.24;1926264;74;24757;-72
2021/07/11 12:09:31;;;;;;;2.00;1.90;;;;;;;21.24;100.00;101518.87;1926306;74;24797;-76
2021/07/11 12:12:04;;;;;;;3.57;2.27;;;;;;;21.19;100.00;101514.81;1861616;76;24214;-72
2021/07/11 12:14:36;;;;;;;1.73;1.60;;;;;;;21.27;100.00;101516.77;1861806;76;24230;-72
2021/07/11 12:17:08;;;;;;;3.63;1.93;;;;;;;21.40;100.00;101526.16;1861782;77;24218;-72
2021/07/11 12:19:46;;;;;;;3.30;2.45;;;;;;;21.40;100.00;101524.75;1862029;77;24695;-72
2021/07/11 12:22:23;;;;;;;1.85;1.40;;;;;;;21.39;100.00;101526.52;1858257;76;24734;-76
2021/07/11 12:25:07;;;;;;;1.70;1.60;;;;;;;21.40;100.00;101530.41;1857788;77;24640;-71
2021/07/11 12:27:37;;;;;;;1.77;1.67;;;;;;;21.38;100.00;101525.70;1857676;77;24226;-76
2021/07/11 12:30:10;;;;;;;1.95;1.80;;;;;;;21.38;100.00;101523.45;1857885;77;24208;-71
2021/07/11 12:32:48;;;;;;;1.97;1.40;;;;;;;21.29;100.00;101519.26;1858115;77;24581;-76
2021/07/11 12:35:19;;;;;;;1.45;1.35;;;;;;;21.23;100.00;101517.20;1858009;77;24584;-72
2021/07/11 12:40:48;;;;;;;1.27;1.13;;;;;;;21.43;100.00;101514.19;1970854;72;31550;-72
2021/07/11 12:46:15;;;;;;;1.20;1.10;;;;;;;21.35;100.00;101510.81;1970104;73;31067;-75
2021/07/11 12:51:43;;;;;;;1.47;1.00;;;;;;;21.54;100.00;101504.71;1970499;72;30938;-76
2021/07/11 12:57:09;;;;;;;1.57;1.23;;;;;;;21.55;100.00;101507.78;1970425;72;31498;-72
2021/07/11 13:02:34;;;;;;;1.40;1.30;;;;;;;21.48;100.00;101506.10;1970413;72;31042;-76
2021/07/11 13:08:09;;;;;;;1.47;1.10;;;;;;;21.41;100.00;101498.15;1970633;72;31548;-76
2021/07/11 13:13:36;;;;;;;1.35;1.25;;;;;;;21.66;100.00;101496.30;1970559;72;31081;-73
2021/07/11 13:19:01;;;;;;;1.13;1.03;;;;;;;21.92;100.00;101498.91;1970642;73;30906;-72
2021/07/11 13:24:25;;;;;;;1.00;0.95;;;;;;;21.91;100.00;101492.42;1970743;72;31396;-72
2021/07/11 13:29:51;;;;;;;0.98;0.98;;;;;;;21.74;100.00;101486.33;1970672;72;30926;-73
2021/07/11 13:35:16;;;;;;;1.05;0.93;;;;;;;21.70;100.00;101481.13;1970945;72;31449;-76
2021/07/11 13:40:40;;;;;;;1.50;0.90;;;;;;;21.59;100.00;101466.34;1970525;73;30886;-76
2021/07/11 13:46:05;;;;;;;1.15;1.05;;;;;;;21.85;100.00;101463.30;1970621;73;31022;-75
2021/07/11 13:51:30;;;;;;;2.15;1.10;;;;;;;21.67;100.00;101464.86;1970572;73;31096;-72
2021/07/11 13:56:57;;;;;;;1.12;1.02;;;;;;;21.69;100.00;101465.33;1970865;72;31512;-75
2021/07/11 14:02:25;;;;;;;0.82;0.82;;;;;;;21.60;100.00;101466.01;1970479;73;30915;-71
2021/07/11 14:07:48;;;;;;;11.50;3.95;;;;;;;21.67;100.00;101447.06;1970533;72;30946;-71
2021/07/11 14:13:12;;;;;;;1.12;1.12;;;;;;;21.85;100.00;101440.09;1970337;72;31359;-70
2021/07/11 14:18:37;;;;;;;1.83;1.23;;;;;;;21.85;100.00;101437.84;1970423;72;31469;-70
2021/07/11 14:24:02;;;;;;;1.60;1.45;;;;;;;21.87;100.00;101435.48;1970519;72;31073;-74
2021/07/11 14:29:26;;;;;;;1.32;1.20;;;;;;;22.10;100.00;101422.05;1970333;72;30915;-70
2021/07/11 14:34:53;;;;;;;1.05;0.95;;;;;;;21.78;100.00;101416.59;1970421;73;31023;-74
2021/07/11 14:40:18;;;;;;;3.90;1.40;;;;;;;22.04;100.00;101401.39;1970363;73;30996;-74
2021/07/11 14:46:02;;;;;;;1.10;1.00;;;;;;;22.00;100.00;101401.84;1946328;74;31531;-73
2021/07/11 14:51:26;;;;;;;1.32;1.10;;;;;;;21.74;100.00;101404.32;1970374;72;30904;-74
2021/07/11 14:56:50;;;;;;;1.60;1.17;;;;;;;21.79;100.00;101404.69;1970254;72;30899;-73
2021/07/11 15:02:15;;;;;;;1.27;1.17;;;;;;;22.08;100.00;101396.67;1970469;73;31503;-73
2021/07/11 15:07:39;;;;;;;1.10;1.00;;;;;;;21.95;100.00;101397.23;1970627;72;31077;-70
2021/07/11 15:13:07;;;;;;;1.35;1.25;;;;;;;21.78;100.00;101402.45;1970519;72;31492;-74
2021/07/11 15:18:31;;;;;;;1.20;1.10;;;;;;;21.63;100.00;101403.69;1970337;72;31038;-69
2021/07/11 15:23:55;;;;;;;1.40;1.30;;;;;;;21.56;100.00;101390.70;1970634;72;31078;-70
2021/07/11 15:29:20;;;;;;;1.30;1.20;;;;;;;21.53;100.00;101387.97;1970534;73;31480;-72
2021/07/11 15:34:46;;;;;;;1.37;1.27;;;;;;;21.71;100.00;101390.88;1970231;73;30945;-70
2021/07/11 15:40:14;;;;;;;1.32;1.30;;;;;;;21.82;100.00;101389.87;1970694;72;31543;-73
2021/07/11 15:45:39;;;;;;;1.95;1.85;;;;;;;21.79;100.00;101391.97;1970745;72;30958;-71
2021/07/11 15:51:06;;;;;;;1.50;1.40;;;;;;;21.64;100.00;101399.69;1970545;72;31003;-83
2021/07/11 15:56:30;;;;;;;2.75;1.50;;;;;;;21.64;100.00;101390.63;1970380;72;30969;-87
2021/07/11 16:01:54;;;;;;;1.62;1.30;;;;;;;21.29;100.00;101385.86;1970385;73;31032;-77
2021/07/11 16:07:24;;;;;;;2.65;1.50;;;;;;;21.27;100.00;101385.36;1970488;72;31426;-69
2021/07/11 16:12:49;;;;;;;1.90;1.60;;;;;;;21.28;100.00;101377.71;1970696;72;31465;-74
2021/07/11 16:18:14;;;;;;;2.15;1.80;;;;;;;21.51;100.00;101382.44;1970779;72;31535;-75
2021/07/11 16:23:38;;;;;;;1.72;1.62;;;;;;;21.40;100.00;101386.83;1972123;72;30896;-80
2021/07/11 16:29:02;;;;;;;1.77;1.67;;;;;;;21.22;100.00;101386.17;1970843;72;30905;-82
2021/07/11 16:34:27;;;;;;;1.70;1.60;;;;;;;20.96;100.00;101380.67;1970425;72;30991;-75
2021/07/11 16:39:52;;;;;;;4.58;3.17;;;;;;;21.12;100.00;101374.69;1970824;72;30908;-76
2021/07/11 16:45:18;;;;;;;1.95;1.80;;;;;;;20.96;100.00;101373.61;1970759;72;30931;-75
2021/07/11 16:50:43;;;;;;;2.20;2.00;;;;;;;20.84;100.00;101380.56;1970835;73;31453;-75
2021/07/11 16:56:08;;;;;;;3.00;2.08;;;;;;;20.64;100.00;101379.94;1970488;73;31163;-76
2021/07/11 17:01:32;;;;;;;1.82;1.70;;;;;;;20.71;100.00;101376.81;1970667;72;31550;-71
2021/07/11 17:06:56;;;;;;;3.03;2.00;;;;;;;20.61;100.00;101372.16;1970950;72;31039;-75
2021/07/11 17:12:22;;;;;;;2.30;1.77;;;;;;;20.42;100.00;101368.34;1970555;73;31075;-75
2021/07/11 17:17:47;;;;;;;2.00;1.80;;;;;;;20.22;100.00;101364.25;1970765;72;31445;-76
2021/07/11 17:23:12;;;;;;;2.07;1.90;;;;;;;20.37;100.00;101374.16;1971369;72;31027;-73
2021/07/11 17:28:36;;;;;;;2.00;1.80;;;;;;;20.16;100.00;101378.28;1970702;73;31527;-80
2021/07/11 17:34:01;;;;;;;2.30;2.10;;;;;;;19.97;100.00;101383.50;1970798;72;31665;-73
2021/07/11 17:39:32;;;;;;;3.30;2.30;;;;;;;19.93;100.00;101393.80;1970729;73;31037;-79
2021/07/11 17:44:56;;;;;;;2.40;2.27;;;;;;;19.81;100.00;101386.00;1970975;72;31465;-72
2021/07/11 17:50:20;;;;;;;2.13;2.00;;;;;;;19.75;100.00;101390.75;1970910;72;31094;-74
2021/07/11 17:55:45;;;;;;;5.80;3.97;;;;;;;19.51;100.00;101402.56;1970636;73;31481;-79
2021/07/11 18:01:29;;;;;;;3.90;2.10;;;;;;;19.60;100.00;101403.94;1946996;74;31005;-75
2021/07/11 18:06:55;;;;;;;3.10;2.33;;;;;;;19.37;100.00;101387.19;1972161;72;30951;-81
2021/07/11 18:12:39;;;;;;;1.90;1.80;;;;;;;19.18;100.00;101371.18;1927345;73;30957;-81
2021/07/11 18:18:11;;;;;;;2.63;2.20;;;;;;;19.10;100.00;101308.06;1970688;72;30935;-81
2021/07/11 18:23:36;;;;;;;2.50;2.30;;;;;;;19.18;100.00;101348.65;1970558;73;30913;-83
2021/07/11 18:29:19;;;;;;;2.87;2.60;;;;;;;19.01;100.00;101348.06;1946144;74;31062;-74
2021/07/11 18:34:44;;;;;;;3.50;2.97;;;;;;;18.84;100.00;101341.00;1970657;73;31506;-77
2021/07/11 18:40:11;;;;;;;3.93;3.30;;;;;;;18.41;100.00;101336.65;1970786;73;31956;-77
2021/07/11 18:45:37;;;;;;;4.30;3.70;;;;;;;18.34;100.00;101347.55;1970715;72;31120;-73
2021/07/11 18:51:02;;;;;;;4.77;4.37;;;;;;;18.30;100.00;101352.75;1971971;72;30989;-79
2021/07/11 18:56:26;;;;;;;5.53;4.70;;;;;;;17.97;100.00;101331.99;1970751;72;31647;-71
2021/07/11 19:01:51;;;;;;;5.10;4.60;;;;;;;17.73;100.00;101347.00;1970539;73;31096;-71
2021/07/11 19:07:17;;;;;;;5.33;4.37;;;;;;;17.98;100.00;101348.29;1970835;72;31546;-71
2021/07/11 19:12:42;;;;;;;6.43;5.17;;;;;;;17.88;100.00;101348.59;1970738;72;31189;-73
2021/07/11 19:18:07;;;;;;;5.77;5.13;;;;;;;17.74;100.00;101343.05;1972666;72;30911;-80
2021/07/11 19:23:31;;;;;;;6.97;6.27;;;;;;;17.51;100.00;101361.02;1970651;72;31113;-80
2021/07/11 19:28:56;;;;;;;7.67;5.37;;;;;;;17.70;100.00;101376.58;1972301;73;31424;-79
2021/07/11 19:34:22;;;;;;;7.37;5.77;;;;;;;17.79;100.00;101403.91;1972304;72;31016;-78
2021/07/11 19:39:46;;;;;;;6.40;5.47;;;;;;;17.67;100.00;101422.16;1970710;73;31471;-72
2021/07/11 19:45:12;;;;;;;5.33;4.83;;;;;;;17.47;100.00;101421.80;1970347;72;30936;-75
2021/07/11 19:50:39;;;;;;;5.40;4.80;;;;;;;17.41;100.00;101444.98;1971974;72;31038;-79
2021/07/11 19:56:06;;;;;;;5.80;5.23;;;;;;;17.35;100.00;101442.59;1970741;72;30981;-80
2021/07/11 20:01:32;;;;;;;6.83;6.07;;;;;;;17.38;100.00;101439.14;1970795;72;31090;-81
2021/07/11 20:06:57;;;;;;;6.20;5.60;;;;;;;17.28;100.00;101435.42;1972107;72;30905;-78
2021/07/11 20:12:21;;;;;;;6.97;6.30;;;;;;;17.25;100.00;101440.84;1970691;72;30974;-83
2021/07/11 20:17:48;;;;;;;6.80;5.90;;;;;;;17.25;100.00;101431.02;1970539;72;30970;-69
2021/07/11 20:23:12;;;;;;;7.13;6.43;;;;;;;17.21;100.00;101429.98;1970957;72;30951;-89
2021/07/11 20:28:37;;;;;;;7.97;6.93;;;;;;;17.31;100.00;101431.16;1970677;72;31540;-71
2021/07/11 20:34:02;;;;;;;7.60;6.90;;;;;;;17.19;100.00;101434.53;1970641;73;31383;-76
2021/07/11 20:39:26;;;;;;;9.00;8.17;;;;;;;17.06;100.00;101435.39;1970557;73;31077;-70
2021/07/11 20:44:51;;;;;;;8.83;7.37;;;;;;;17.09;100.00;101423.52;1970675;72;30997;-71
2021/07/11 20:50:20;;;;;;;9.40;8.30;;;;;;;17.23;100.00;101426.30;1971554;71;30981;-79
2021/07/11 20:55:47;;;;;;;9.50;7.60;;;;;;;17.15;100.00;101429.29;1970530;73;31064;-72
2021/07/11 21:01:10;;;;;;;9.53;8.23;;;;;;;17.09;100.00;101421.28;1970867;72;33379;-71
2021/07/11 21:06:35;;;;;;;9.30;8.00;;;;;;;17.04;100.00;101415.21;1970687;72;31528;-74
2021/07/11 21:12:00;;;;;;;10.03;8.30;;;;;;;16.93;100.00;101410.98;1970730;72;31473;-71
2021/07/11 21:17:44;;;;;;;7.73;7.03;;;;;;;16.90;100.00;101396.15;1946406;74;31563;-71
2021/07/11 21:23:09;;;;;;;8.43;7.07;;;;;;;16.86;100.00;101403.54;1970953;72;31029;-72
2021/07/11 21:28:33;;;;;;;7.77;7.07;;;;;;;16.84;100.00;101385.63;1970673;73;33408;-77
2021/07/11 21:34:01;;;;;;;9.30;7.37;;;;;;;16.67;100.00;101379.00;1970890;72;31447;-84
2021/07/11 21:39:28;;;;;;;9.03;6.73;;;;;;;16.65;100.00;101379.87;1972170;73;31509;-78
2021/07/11 21:44:53;;;;;;;9.73;8.63;;;;;;;16.40;100.00;101372.23;1972438;72;33349;-78
2021/07/11 21:50:20;;;;;;;10.37;9.27;;;;;;;16.37;100.00;101358.00;1970917;73;31489;-77
2021/07/11 21:55:43;;;;;;;11.57;10.33;;;;;;;16.37;100.00;101378.47;1970511;72;31051;-76
2021/07/11 22:01:07;;;;;;;9.80;8.77;;;;;;;16.43;100.00;101386.78;1970508;73;31074;-76
2021/07/11 22:06:32;;;;;;;13.43;10.83;;;;;;;16.55;100.00;101402.52;1970843;72;31592;-69
2021/07/11 22:11:59;;;;;;;11.37;10.03;;;;;;;16.57;100.00;101405.82;1972419;72;30940;-76
2021/07/11 22:17:23;;;;;;;13.27;10.70;;;;;;;16.51;100.00;101407.92;1970697;72;33057;-71
2021/07/11 22:22:49;;;;;;;17.07;13.67;;;;;;;16.52;100.00;101408.16;1972346;72;33453;-76
2021/07/11 22:28:14;;;;;;;16.30;13.87;;;;;;;16.66;100.00;101418.01;1972043;73;32980;-77
2021/07/11 22:33:39;;;;;;;14.10;12.57;;;;;;;16.49;100.00;101419.17;1970733;72;31042;-75
2021/07/11 22:39:04;;;;;;;14.67;12.67;;;;;;;16.41;100.00;101415.12;1972596;72;31487;-76
2021/07/11 22:44:31;;;;;;;14.70;12.33;;;;;;;16.33;100.00;101404.06;1972297;72;32985;-77
2021/07/11 22:49:56;;;;;;;13.03;11.67;;;;;;;16.28;100.00;101394.91;1970808;72;33393;-71
2021/07/11 22:55:20;;;;;;;12.30;11.00;;;;;;;16.23;100.00;101397.81;1970620;72;31179;-70
2021/07/11 23:00:49;;;;;;;13.33;11.00;;;;;;;16.20;100.00;101386.66;1970685;72;32956;-71
2021/07/11 23:06:13;;;;;;;12.70;9.60;;;;;;;16.20;100.00;101380.22;1970710;73;31033;-74
2021/07/11 23:11:37;;;;;;;12.13;9.90;;;;;;;16.07;100.00;101376.83;1972253;72;31449;-75
2021/07/11 23:17:02;;;;;;;13.47;11.53;;;;;;;15.98;100.00;101373.07;1972073;73;33465;-76
2021/07/11 23:22:26;;;;;;;15.57;11.73;;;;;;;15.94;100.00;101363.89;1971912;73;33019;-76
2021/07/11 23:27:53;;;;;;;16.60;12.93;;;;;;;15.95;100.00;101360.52;1970694;72;33047;-75
2021/07/11 23:33:18;;;;;;;14.40;12.10;;;;;;;15.84;100.00;101354.83;1971983;72;30963;-76
2021/07/11 23:38:43;;;;;;;16.60;12.53;;;;;;;15.81;100.00;101352.65;1970809;72;31578;-74
2021/07/11 23:44:07;;;;;;;11.37;10.03;;;;;;;15.86;100.00;101348.36;1972080;73;30958;-76
2021/07/11 23:49:33;;;;;;;12.37;10.50;;;;;;;15.75;100.00;101339.87;1972254;72;32981;-76
2021/07/11 23:54:56;;;;;;;11.70;8.97;;;;;;;15.79;100.00;101340.91;1972034;73;32938;-76
